sensor_id;sensor_type;location;lat;lon;timestamp;P1;durP1;ratioP1;P2;durP2;ratioP2
8179;SDS011;4131;48.810;11.892;2023-04-09T00:01:59;0.28;;;0.28;;
8179;SDS011;4131;48.810;11.892;2023-04-09T00:04:29;0.95;;;0.80;;
8179;SDS011;4131;48.810;11.892;2023-04-09T00:06:57;0.80;;;0.80;;
8179;SDS011;4131;48.810;11.892;2023-04-09T00:09:28;0.68;;;0.68;;
8179;SDS011;4131;48.810;11.892;2023-04-09T00:11:58;0.75;;;0.75;;
8179;SDS011;4131;48.810;11.892;2023-04-09T00:14:29;1.42;;;1.17;;
8179;SDS011;4131;48.810;11.892;2023-04-09T00:16:58;2.65;;;1.42;;
8179;SDS011;4131;48.810;11.892;2023-04-09T00:19:27;1.05;;;0.75;;
8179;SDS011;4131;48.810;11.892;2023-04-09T00:21:56;0.55;;;0.55;;
8179;SDS011;4131;48.810;11.892;2023-04-09T00:24:26;0.28;;;0.28;;
8179;SDS011;4131;48.810;11.892;2023-04-09T00:26:55;0.70;;;0.40;;
8179;SDS011;4131;48.810;11.892;2023-04-09T00:29:24;0.43;;;0.40;;
8179;SDS011;4131;48.810;11.892;2023-04-09T00:31:55;1.23;;;0.95;;
8179;SDS011;4131;48.810;11.892;2023-04-09T00:34:24;0.63;;;0.63;;
8179;SDS011;4131;48.810;11.892;2023-04-09T00:36:53;0.75;;;0.52;;
8179;SDS011;4131;48.810;11.892;2023-04-09T00:39:22;4.57;;;1.50;;
8179;SDS011;4131;48.810;11.892;2023-04-09T00:41:54;0.55;;;0.55;;
8179;SDS011;4131;48.810;11.892;2023-04-09T00:44:24;2.03;;;1.10;;
8179;SDS011;4131;48.810;11.892;2023-04-09T00:46:56;0.77;;;0.77;;
8179;SDS011;4131;48.810;11.892;2023-04-09T00:49:26;2.40;;;0.85;;
8179;SDS011;4131;48.810;11.892;2023-04-09T00:51:55;0.98;;;0.98;;
8179;SDS011;4131;48.810;11.892;2023-04-09T00:54:27;1.55;;;0.50;;
8179;SDS011;4131;48.810;11.892;2023-04-09T00:56:56;1.10;;;1.10;;
8179;SDS011;4131;48.810;11.892;2023-04-09T00:59:26;4.40;;;2.08;;
8179;SDS011;4131;48.810;11.892;2023-04-09T01:01:58;0.52;;;0.52;;
8179;SDS011;4131;48.810;11.892;2023-04-09T01:04:28;1.45;;;1.35;;
8179;SDS011;4131;48.810;11.892;2023-04-09T01:06:59;1.33;;;1.27;;
8179;SDS011;4131;48.810;11.892;2023-04-09T01:09:32;1.30;;;1.10;;
8179;SDS011;4131;48.810;11.892;2023-04-09T01:12:05;0.75;;;0.75;;
8179;SDS011;4131;48.810;11.892;2023-04-09T01:14:38;0.50;;;0.50;;
8179;SDS011;4131;48.810;11.892;2023-04-09T01:17:14;0.90;;;0.70;;
8179;SDS011;4131;48.810;11.892;2023-04-09T01:19:46;0.75;;;0.60;;
8179;SDS011;4131;48.810;11.892;2023-04-09T01:22:23;0.60;;;0.60;;
8179;SDS011;4131;48.810;11.892;2023-04-09T01:24:59;1.85;;;1.27;;
8179;SDS011;4131;48.810;11.892;2023-04-09T01:27:33;1.08;;;1.08;;
8179;SDS011;4131;48.810;11.892;2023-04-09T01:30:07;1.88;;;1.77;;
8179;SDS011;4131;48.810;11.892;2023-04-09T01:32:37;0.63;;;0.63;;
8179;SDS011;4131;48.810;11.892;2023-04-09T01:35:07;0.77;;;0.77;;
8179;SDS011;4131;48.810;11.892;2023-04-09T01:37:36;1.38;;;1.27;;
8179;SDS011;4131;48.810;11.892;2023-04-09T01:40:07;0.90;;;0.47;;
8179;SDS011;4131;48.810;11.892;2023-04-09T01:42:36;0.28;;;0.25;;
8179;SDS011;4131;48.810;11.892;2023-04-09T01:45:10;3.20;;;0.80;;
8179;SDS011;4131;48.810;11.892;2023-04-09T01:47:39;0.85;;;0.43;;
8179;SDS011;4131;48.810;11.892;2023-04-09T01:50:09;1.55;;;1.30;;
8179;SDS011;4131;48.810;11.892;2023-04-09T01:52:39;0.55;;;0.55;;
8179;SDS011;4131;48.810;11.892;2023-04-09T01:55:10;1.38;;;1.27;;
8179;SDS011;4131;48.810;11.892;2023-04-09T01:57:40;0.20;;;0.20;;
8179;SDS011;4131;48.810;11.892;2023-04-09T02:00:11;1.38;;;1.13;;
8179;SDS011;4131;48.810;11.892;2023-04-09T02:02:41;2.08;;;1.35;;
8179;SDS011;4131;48.810;11.892;2023-04-09T02:05:13;1.38;;;0.90;;
8179;SDS011;4131;48.810;11.892;2023-04-09T02:07:46;1.58;;;0.85;;
8179;SDS011;4131;48.810;11.892;2023-04-09T02:10:16;0.00;;;0.00;;
8179;SDS011;4131;48.810;11.892;2023-04-09T02:12:47;1.25;;;1.08;;
8179;SDS011;4131;48.810;11.892;2023-04-09T02:15:18;0.10;;;0.10;;
8179;SDS011;4131;48.810;11.892;2023-04-09T02:17:49;0.55;;;0.55;;
8179;SDS011;4131;48.810;11.892;2023-04-09T02:20:19;0.27;;;0.27;;
8179;SDS011;4131;48.810;11.892;2023-04-09T02:22:49;0.17;;;0.17;;
8179;SDS011;4131;48.810;11.892;2023-04-09T02:25:20;3.80;;;0.80;;
8179;SDS011;4131;48.810;11.892;2023-04-09T02:27:49;0.35;;;0.35;;
8179;SDS011;4131;48.810;11.892;2023-04-09T02:30:20;2.85;;;0.35;;
8179;SDS011;4131;48.810;11.892;2023-04-09T02:32:50;1.30;;;1.25;;
8179;SDS011;4131;48.810;11.892;2023-04-09T02:35:19;2.10;;;0.43;;
8179;SDS011;4131;48.810;11.892;2023-04-09T02:37:47;0.00;;;0.00;;
8179;SDS011;4131;48.810;11.892;2023-04-09T02:40:16;0.17;;;0.17;;
8179;SDS011;4131;48.810;11.892;2023-04-09T02:42:46;0.10;;;0.10;;
8179;SDS011;4131;48.810;11.892;2023-04-09T02:45:22;2.03;;;0.57;;
8179;SDS011;4131;48.810;11.892;2023-04-09T02:47:51;0.63;;;0.50;;
8179;SDS011;4131;48.810;11.892;2023-04-09T02:50:22;1.00;;;0.60;;
8179;SDS011;4131;48.810;11.892;2023-04-09T02:52:54;0.10;;;0.10;;
8179;SDS011;4131;48.810;11.892;2023-04-09T02:55:23;1.70;;;0.97;;
8179;SDS011;4131;48.810;11.892;2023-04-09T02:57:53;0.77;;;0.77;;
8179;SDS011;4131;48.810;11.892;2023-04-09T03:00:23;3.33;;;0.63;;
8179;SDS011;4131;48.810;11.892;2023-04-09T03:02:51;1.13;;;1.07;;
8179;SDS011;4131;48.810;11.892;2023-04-09T03:05:19;2.07;;;1.87;;
8179;SDS011;4131;48.810;11.892;2023-04-09T03:07:48;2.73;;;0.63;;
8179;SDS011;4131;48.810;11.892;2023-04-09T03:10:16;0.73;;;0.73;;
8179;SDS011;4131;48.810;11.892;2023-04-09T03:12:44;0.20;;;0.20;;
8179;SDS011;4131;48.810;11.892;2023-04-09T03:15:13;0.27;;;0.20;;
8179;SDS011;4131;48.810;11.892;2023-04-09T03:17:43;0.75;;;0.45;;
8179;SDS011;4131;48.810;11.892;2023-04-09T03:20:11;0.50;;;0.50;;
8179;SDS011;4131;48.810;11.892;2023-04-09T03:22:39;0.00;;;0.00;;
8179;SDS011;4131;48.810;11.892;2023-04-09T03:25:08;2.57;;;0.70;;
8179;SDS011;4131;48.810;11.892;2023-04-09T03:27:36;1.40;;;0.57;;
8179;SDS011;4131;48.810;11.892;2023-04-09T03:30:04;0.47;;;0.47;;
8179;SDS011;4131;48.810;11.892;2023-04-09T03:32:33;1.80;;;1.00;;
8179;SDS011;4131;48.810;11.892;2023-04-09T03:35:03;0.20;;;0.20;;
8179;SDS011;4131;48.810;11.892;2023-04-09T03:37:32;1.17;;;1.03;;
8179;SDS011;4131;48.810;11.892;2023-04-09T03:40:00;1.37;;;1.30;;
8179;SDS011;4131;48.810;11.892;2023-04-09T03:42:29;1.50;;;1.47;;
8179;SDS011;4131;48.810;11.892;2023-04-09T03:44:57;2.67;;;1.23;;
8179;SDS011;4131;48.810;11.892;2023-04-09T03:47:25;0.00;;;0.00;;
8179;SDS011;4131;48.810;11.892;2023-04-09T03:49:53;0.13;;;0.13;;
8179;SDS011;4131;48.810;11.892;2023-04-09T03:52:22;0.47;;;0.47;;
8179;SDS011;4131;48.810;11.892;2023-04-09T03:54:50;0.10;;;0.10;;
8179;SDS011;4131;48.810;11.892;2023-04-09T03:57:18;0.67;;;0.37;;
8179;SDS011;4131;48.810;11.892;2023-04-09T03:59:46;8.37;;;2.20;;
8179;SDS011;4131;48.810;11.892;2023-04-09T04:02:14;3.27;;;1.93;;
8179;SDS011;4131;48.810;11.892;2023-04-09T04:04:43;2.57;;;1.10;;
8179;SDS011;4131;48.810;11.892;2023-04-09T04:07:12;0.10;;;0.10;;
8179;SDS011;4131;48.810;11.892;2023-04-09T04:09:42;1.30;;;1.20;;
8179;SDS011;4131;48.810;11.892;2023-04-09T04:12:10;1.60;;;0.67;;
8179;SDS011;4131;48.810;11.892;2023-04-09T04:14:58;0.73;;;0.73;;
8179;SDS011;4131;48.810;11.892;2023-04-09T04:17:47;0.17;;;0.17;;
8179;SDS011;4131;48.810;11.892;2023-04-09T04:20:36;0.57;;;0.57;;
8179;SDS011;4131;48.810;11.892;2023-04-09T04:23:24;0.30;;;0.30;;
8179;SDS011;4131;48.810;11.892;2023-04-09T04:26:14;1.27;;;1.17;;
8179;SDS011;4131;48.810;11.892;2023-04-09T04:29:02;0.87;;;0.87;;
8179;SDS011;4131;48.810;11.892;2023-04-09T04:31:50;0.17;;;0.17;;
8179;SDS011;4131;48.810;11.892;2023-04-09T04:34:39;1.73;;;1.60;;
8179;SDS011;4131;48.810;11.892;2023-04-09T04:37:27;1.23;;;0.83;;
8179;SDS011;4131;48.810;11.892;2023-04-09T04:39:56;0.60;;;0.60;;
8179;SDS011;4131;48.810;11.892;2023-04-09T04:42:26;0.30;;;0.27;;
8179;SDS011;4131;48.810;11.892;2023-04-09T04:44:54;0.37;;;0.37;;
8179;SDS011;4131;48.810;11.892;2023-04-09T04:47:22;2.63;;;1.00;;
8179;SDS011;4131;48.810;11.892;2023-04-09T04:49:51;1.00;;;0.97;;
8179;SDS011;4131;48.810;11.892;2023-04-09T04:52:19;3.30;;;0.40;;
8179;SDS011;4131;48.810;11.892;2023-04-09T04:54:48;0.50;;;0.50;;
8179;SDS011;4131;48.810;11.892;2023-04-09T04:57:16;2.33;;;0.73;;
8179;SDS011;4131;48.810;11.892;2023-04-09T04:59:46;0.20;;;0.20;;
8179;SDS011;4131;48.810;11.892;2023-04-09T05:02:14;0.73;;;0.73;;
8179;SDS011;4131;48.810;11.892;2023-04-09T05:04:42;0.40;;;0.40;;
8179;SDS011;4131;48.810;11.892;2023-04-09T05:07:11;0.20;;;0.20;;
8179;SDS011;4131;48.810;11.892;2023-04-09T05:09:39;0.53;;;0.20;;
8179;SDS011;4131;48.810;11.892;2023-04-09T05:12:09;1.40;;;1.13;;
8179;SDS011;4131;48.810;11.892;2023-04-09T05:14:38;0.23;;;0.23;;
8179;SDS011;4131;48.810;11.892;2023-04-09T05:17:08;1.73;;;1.20;;
8179;SDS011;4131;48.810;11.892;2023-04-09T05:19:36;1.97;;;0.47;;
8179;SDS011;4131;48.810;11.892;2023-04-09T05:22:04;0.90;;;0.47;;
8179;SDS011;4131;48.810;11.892;2023-04-09T05:24:32;0.60;;;0.60;;
8179;SDS011;4131;48.810;11.892;2023-04-09T05:27:01;19.17;;;0.90;;
8179;SDS011;4131;48.810;11.892;2023-04-09T05:29:29;1.83;;;1.73;;
8179;SDS011;4131;48.810;11.892;2023-04-09T05:31:57;1.17;;;1.07;;
8179;SDS011;4131;48.810;11.892;2023-04-09T05:34:27;0.47;;;0.47;;
8179;SDS011;4131;48.810;11.892;2023-04-09T05:36:56;4.70;;;0.60;;
8179;SDS011;4131;48.810;11.892;2023-04-09T05:39:24;0.83;;;0.70;;
8179;SDS011;4131;48.810;11.892;2023-04-09T05:41:52;1.43;;;0.97;;
8179;SDS011;4131;48.810;11.892;2023-04-09T05:44:22;0.70;;;0.70;;
8179;SDS011;4131;48.810;11.892;2023-04-09T05:46:50;2.25;;;1.70;;
8179;SDS011;4131;48.810;11.892;2023-04-09T05:49:18;2.50;;;2.10;;
8179;SDS011;4131;48.810;11.892;2023-04-09T05:51:48;1.23;;;0.50;;
8179;SDS011;4131;48.810;11.892;2023-04-09T05:54:16;2.47;;;0.63;;
8179;SDS011;4131;48.810;11.892;2023-04-09T05:56:44;0.77;;;0.77;;
8179;SDS011;4131;48.810;11.892;2023-04-09T05:59:13;2.42;;;0.70;;
8179;SDS011;4131;48.810;11.892;2023-04-09T06:01:41;0.57;;;0.57;;
8179;SDS011;4131;48.810;11.892;2023-04-09T06:04:09;1.05;;;0.82;;
8179;SDS011;4131;48.810;11.892;2023-04-09T06:06:38;4.20;;;1.45;;
8179;SDS011;4131;48.810;11.892;2023-04-09T06:09:07;1.08;;;0.90;;
8179;SDS011;4131;48.810;11.892;2023-04-09T06:11:35;2.10;;;2.00;;
8179;SDS011;4131;48.810;11.892;2023-04-09T06:14:03;1.70;;;1.55;;
8179;SDS011;4131;48.810;11.892;2023-04-09T06:16:32;0.38;;;0.38;;
8179;SDS011;4131;48.810;11.892;2023-04-09T06:19:00;3.30;;;1.20;;
8179;SDS011;4131;48.810;11.892;2023-04-09T06:21:28;0.70;;;0.70;;
8179;SDS011;4131;48.810;11.892;2023-04-09T06:23:56;1.58;;;1.48;;
8179;SDS011;4131;48.810;11.892;2023-04-09T06:26:26;3.55;;;0.88;;
8179;SDS011;4131;48.810;11.892;2023-04-09T06:28:55;1.50;;;1.05;;
8179;SDS011;4131;48.810;11.892;2023-04-09T06:31:23;0.20;;;0.20;;
8179;SDS011;4131;48.810;11.892;2023-04-09T06:33:51;2.28;;;1.30;;
8179;SDS011;4131;48.810;11.892;2023-04-09T06:36:20;0.52;;;0.52;;
8179;SDS011;4131;48.810;11.892;2023-04-09T06:38:48;1.25;;;1.08;;
8179;SDS011;4131;48.810;11.892;2023-04-09T06:41:16;0.95;;;0.95;;
8179;SDS011;4131;48.810;11.892;2023-04-09T06:43:48;2.13;;;1.45;;
8179;SDS011;4131;48.810;11.892;2023-04-09T06:46:17;1.85;;;0.85;;
8179;SDS011;4131;48.810;11.892;2023-04-09T06:48:46;2.58;;;1.95;;
8179;SDS011;4131;48.810;11.892;2023-04-09T06:51:14;5.15;;;2.72;;
8179;SDS011;4131;48.810;11.892;2023-04-09T06:53:42;1.27;;;1.17;;
8179;SDS011;4131;48.810;11.892;2023-04-09T06:56:13;2.65;;;2.38;;
8179;SDS011;4131;48.810;11.892;2023-04-09T06:58:41;5.07;;;1.60;;
8179;SDS011;4131;48.810;11.892;2023-04-09T07:01:11;3.85;;;2.47;;
8179;SDS011;4131;48.810;11.892;2023-04-09T07:03:39;3.85;;;3.22;;
8179;SDS011;4131;48.810;11.892;2023-04-09T07:06:07;3.55;;;2.58;;
8179;SDS011;4131;48.810;11.892;2023-04-09T07:08:35;4.32;;;2.67;;
8179;SDS011;4131;48.810;11.892;2023-04-09T07:11:03;3.40;;;1.88;;
8179;SDS011;4131;48.810;11.892;2023-04-09T07:13:31;4.05;;;2.03;;
8179;SDS011;4131;48.810;11.892;2023-04-09T07:16:00;5.07;;;2.80;;
8179;SDS011;4131;48.810;11.892;2023-04-09T07:18:29;4.68;;;3.20;;
8179;SDS011;4131;48.810;11.892;2023-04-09T07:20:57;5.18;;;3.05;;
8179;SDS011;4131;48.810;11.892;2023-04-09T07:23:25;5.20;;;1.83;;
8179;SDS011;4131;48.810;11.892;2023-04-09T07:25:54;2.13;;;1.67;;
8179;SDS011;4131;48.810;11.892;2023-04-09T07:28:22;1.83;;;1.15;;
8179;SDS011;4131;48.810;11.892;2023-04-09T07:30:50;1.70;;;1.45;;
8179;SDS011;4131;48.810;11.892;2023-04-09T07:33:18;3.58;;;2.22;;
8179;SDS011;4131;48.810;11.892;2023-04-09T07:35:48;2.60;;;1.58;;
8179;SDS011;4131;48.810;11.892;2023-04-09T07:38:16;2.35;;;1.58;;
8179;SDS011;4131;48.810;11.892;2023-04-09T07:40:44;4.20;;;2.40;;
8179;SDS011;4131;48.810;11.892;2023-04-09T07:43:12;4.28;;;3.70;;
8179;SDS011;4131;48.810;11.892;2023-04-09T07:45:41;11.38;;;3.45;;
8179;SDS011;4131;48.810;11.892;2023-04-09T07:48:09;2.92;;;1.73;;
8179;SDS011;4131;48.810;11.892;2023-04-09T07:50:38;1.73;;;1.55;;
8179;SDS011;4131;48.810;11.892;2023-04-09T07:53:07;3.25;;;2.50;;
8179;SDS011;4131;48.810;11.892;2023-04-09T07:55:36;8.68;;;2.65;;
8179;SDS011;4131;48.810;11.892;2023-04-09T07:58:03;3.33;;;2.92;;
8179;SDS011;4131;48.810;11.892;2023-04-09T08:00:32;3.08;;;2.28;;
8179;SDS011;4131;48.810;11.892;2023-04-09T08:03:00;2.42;;;2.17;;
8179;SDS011;4131;48.810;11.892;2023-04-09T08:05:31;10.35;;;3.38;;
8179;SDS011;4131;48.810;11.892;2023-04-09T08:08:00;5.03;;;4.50;;
8179;SDS011;4131;48.810;11.892;2023-04-09T08:10:30;6.97;;;2.67;;
8179;SDS011;4131;48.810;11.892;2023-04-09T08:12:57;3.95;;;2.47;;
8179;SDS011;4131;48.810;11.892;2023-04-09T08:15:25;7.95;;;3.90;;
8179;SDS011;4131;48.810;11.892;2023-04-09T08:17:54;4.15;;;2.60;;
8179;SDS011;4131;48.810;11.892;2023-04-09T08:20:22;8.20;;;3.00;;
8179;SDS011;4131;48.810;11.892;2023-04-09T08:22:50;6.97;;;4.78;;
8179;SDS011;4131;48.810;11.892;2023-04-09T08:25:19;5.30;;;3.92;;
8179;SDS011;4131;48.810;11.892;2023-04-09T08:27:48;4.90;;;3.10;;
8179;SDS011;4131;48.810;11.892;2023-04-09T08:30:16;4.40;;;2.10;;
8179;SDS011;4131;48.810;11.892;2023-04-09T08:32:44;7.35;;;3.42;;
8179;SDS011;4131;48.810;11.892;2023-04-09T08:35:13;10.07;;;3.85;;
8179;SDS011;4131;48.810;11.892;2023-04-09T08:37:42;4.40;;;2.55;;
8179;SDS011;4131;48.810;11.892;2023-04-09T08:40:10;5.05;;;2.83;;
8179;SDS011;4131;48.810;11.892;2023-04-09T08:42:39;5.35;;;1.60;;
8179;SDS011;4131;48.810;11.892;2023-04-09T08:45:12;3.88;;;3.42;;
8179;SDS011;4131;48.810;11.892;2023-04-09T08:47:41;10.02;;;3.95;;
8179;SDS011;4131;48.810;11.892;2023-04-09T08:50:12;3.10;;;2.50;;
8179;SDS011;4131;48.810;11.892;2023-04-09T08:52:40;6.53;;;3.22;;
8179;SDS011;4131;48.810;11.892;2023-04-09T08:55:12;4.68;;;3.00;;
8179;SDS011;4131;48.810;11.892;2023-04-09T08:57:40;5.57;;;3.10;;
8179;SDS011;4131;48.810;11.892;2023-04-09T09:00:09;7.90;;;4.50;;
8179;SDS011;4131;48.810;11.892;2023-04-09T09:02:39;4.75;;;2.15;;
8179;SDS011;4131;48.810;11.892;2023-04-09T09:05:34;6.22;;;3.58;;
8179;SDS011;4131;48.810;11.892;2023-04-09T09:08:02;5.63;;;3.50;;
8179;SDS011;4131;48.810;11.892;2023-04-09T09:10:38;5.50;;;3.85;;
8179;SDS011;4131;48.810;11.892;2023-04-09T09:13:17;4.75;;;2.72;;
8179;SDS011;4131;48.810;11.892;2023-04-09T09:15:48;4.10;;;3.35;;
8179;SDS011;4131;48.810;11.892;2023-04-09T09:18:21;2.50;;;2.15;;
8179;SDS011;4131;48.810;11.892;2023-04-09T09:21:10;5.88;;;3.10;;
8179;SDS011;4131;48.810;11.892;2023-04-09T09:23:39;6.22;;;2.67;;
8179;SDS011;4131;48.810;11.892;2023-04-09T09:26:11;7.75;;;4.38;;
8179;SDS011;4131;48.810;11.892;2023-04-09T09:28:41;5.57;;;3.33;;
8179;SDS011;4131;48.810;11.892;2023-04-09T09:31:10;4.00;;;2.42;;
8179;SDS011;4131;48.810;11.892;2023-04-09T09:33:41;4.32;;;2.40;;
8179;SDS011;4131;48.810;11.892;2023-04-09T09:36:09;7.03;;;3.30;;
8179;SDS011;4131;48.810;11.892;2023-04-09T09:38:49;5.15;;;3.47;;
8179;SDS011;4131;48.810;11.892;2023-04-09T09:41:19;5.97;;;3.78;;
8179;SDS011;4131;48.810;11.892;2023-04-09T09:43:47;7.15;;;4.07;;
8179;SDS011;4131;48.810;11.892;2023-04-09T09:46:16;7.10;;;4.80;;
8179;SDS011;4131;48.810;11.892;2023-04-09T09:48:46;4.18;;;2.47;;
8179;SDS011;4131;48.810;11.892;2023-04-09T09:51:15;3.55;;;2.28;;
8179;SDS011;4131;48.810;11.892;2023-04-09T09:53:44;9.70;;;5.20;;
8179;SDS011;4131;48.810;11.892;2023-04-09T09:56:19;5.15;;;2.95;;
8179;SDS011;4131;48.810;11.892;2023-04-09T09:58:51;12.80;;;3.67;;
8179;SDS011;4131;48.810;11.892;2023-04-09T10:01:23;8.38;;;4.85;;
8179;SDS011;4131;48.810;11.892;2023-04-09T10:03:55;4.30;;;3.17;;
8179;SDS011;4131;48.810;11.892;2023-04-09T10:06:26;7.03;;;4.50;;
8179;SDS011;4131;48.810;11.892;2023-04-09T10:08:55;4.65;;;3.60;;
8179;SDS011;4131;48.810;11.892;2023-04-09T10:11:24;5.68;;;3.55;;
8179;SDS011;4131;48.810;11.892;2023-04-09T10:13:54;9.07;;;5.63;;
8179;SDS011;4131;48.810;11.892;2023-04-09T10:16:24;4.38;;;2.85;;
8179;SDS011;4131;48.810;11.892;2023-04-09T10:18:54;6.38;;;2.53;;
8179;SDS011;4131;48.810;11.892;2023-04-09T10:21:27;3.25;;;2.15;;
8179;SDS011;4131;48.810;11.892;2023-04-09T10:24:00;10.20;;;3.90;;
8179;SDS011;4131;48.810;11.892;2023-04-09T10:26:31;7.97;;;3.45;;
8179;SDS011;4131;48.810;11.892;2023-04-09T10:29:04;2.67;;;2.15;;
8179;SDS011;4131;48.810;11.892;2023-04-09T10:31:52;3.80;;;2.88;;
8179;SDS011;4131;48.810;11.892;2023-04-09T10:34:23;6.10;;;2.67;;
8179;SDS011;4131;48.810;11.892;2023-04-09T10:36:55;7.15;;;4.47;;
8179;SDS011;4131;48.810;11.892;2023-04-09T10:39:25;2.35;;;2.15;;
8179;SDS011;4131;48.810;11.892;2023-04-09T10:41:55;5.68;;;2.50;;
8179;SDS011;4131;48.810;11.892;2023-04-09T10:44:24;6.80;;;3.35;;
8179;SDS011;4131;48.810;11.892;2023-04-09T10:46:53;8.88;;;4.22;;
8179;SDS011;4131;48.810;11.892;2023-04-09T10:49:23;2.65;;;2.28;;
8179;SDS011;4131;48.810;11.892;2023-04-09T10:51:52;3.38;;;3.08;;
8179;SDS011;4131;48.810;11.892;2023-04-09T10:54:40;4.10;;;2.33;;
8179;SDS011;4131;48.810;11.892;2023-04-09T10:57:12;5.13;;;3.22;;
8179;SDS011;4131;48.810;11.892;2023-04-09T10:59:48;4.22;;;2.17;;
8179;SDS011;4131;48.810;11.892;2023-04-09T11:05:26;4.00;;;2.80;;
8179;SDS011;4131;48.810;11.892;2023-04-09T11:08:00;3.85;;;3.05;;
8179;SDS011;4131;48.810;11.892;2023-04-09T11:10:31;7.18;;;2.10;;
8179;SDS011;4131;48.810;11.892;2023-04-09T11:12:59;3.45;;;2.75;;
8179;SDS011;4131;48.810;11.892;2023-04-09T11:15:28;5.40;;;2.22;;
8179;SDS011;4131;48.810;11.892;2023-04-09T11:17:57;6.28;;;4.10;;
8179;SDS011;4131;48.810;11.892;2023-04-09T11:20:26;5.90;;;3.97;;
8179;SDS011;4131;48.810;11.892;2023-04-09T11:22:56;3.47;;;2.58;;
8179;SDS011;4131;48.810;11.892;2023-04-09T11:25:26;2.13;;;2.03;;
8179;SDS011;4131;48.810;11.892;2023-04-09T11:27:55;9.80;;;3.33;;
8179;SDS011;4131;48.810;11.892;2023-04-09T11:30:23;6.70;;;4.75;;
8179;SDS011;4131;48.810;11.892;2023-04-09T11:32:51;4.97;;;2.58;;
8179;SDS011;4131;48.810;11.892;2023-04-09T11:35:20;9.38;;;5.20;;
8179;SDS011;4131;48.810;11.892;2023-04-09T11:37:50;4.53;;;3.28;;
8179;SDS011;4131;48.810;11.892;2023-04-09T11:40:19;7.72;;;3.05;;
8179;SDS011;4131;48.810;11.892;2023-04-09T11:42:49;5.10;;;2.92;;
8179;SDS011;4131;48.810;11.892;2023-04-09T11:45:18;7.10;;;4.10;;
8179;SDS011;4131;48.810;11.892;2023-04-09T11:47:48;4.78;;;2.80;;
8179;SDS011;4131;48.810;11.892;2023-04-09T11:50:17;6.38;;;3.17;;
8179;SDS011;4131;48.810;11.892;2023-04-09T11:52:46;6.85;;;4.43;;
8179;SDS011;4131;48.810;11.892;2023-04-09T11:55:23;9.13;;;4.20;;
8179;SDS011;4131;48.810;11.892;2023-04-09T11:57:52;4.65;;;2.97;;
8179;SDS011;4131;48.810;11.892;2023-04-09T12:00:23;4.60;;;2.45;;
8179;SDS011;4131;48.810;11.892;2023-04-09T12:02:57;6.00;;;3.03;;
8179;SDS011;4131;48.810;11.892;2023-04-09T12:05:28;4.32;;;3.13;;
8179;SDS011;4131;48.810;11.892;2023-04-09T12:07:57;3.33;;;2.47;;
8179;SDS011;4131;48.810;11.892;2023-04-09T12:10:28;3.63;;;3.25;;
8179;SDS011;4131;48.810;11.892;2023-04-09T12:13:00;4.05;;;2.25;;
8179;SDS011;4131;48.810;11.892;2023-04-09T12:15:30;4.50;;;2.15;;
8179;SDS011;4131;48.810;11.892;2023-04-09T12:17:59;5.93;;;3.22;;
8179;SDS011;4131;48.810;11.892;2023-04-09T12:20:28;4.40;;;3.17;;
8179;SDS011;4131;48.810;11.892;2023-04-09T12:22:58;7.85;;;3.70;;
8179;SDS011;4131;48.810;11.892;2023-04-09T12:25:30;5.72;;;2.35;;
8179;SDS011;4131;48.810;11.892;2023-04-09T12:27:59;7.43;;;4.25;;
8179;SDS011;4131;48.810;11.892;2023-04-09T12:30:27;5.03;;;3.17;;
8179;SDS011;4131;48.810;11.892;2023-04-09T12:32:55;2.95;;;2.55;;
8179;SDS011;4131;48.810;11.892;2023-04-09T12:35:24;10.77;;;3.58;;
8179;SDS011;4131;48.810;11.892;2023-04-09T12:37:52;6.47;;;2.20;;
8179;SDS011;4131;48.810;11.892;2023-04-09T12:40:21;6.68;;;2.72;;
8179;SDS011;4131;48.810;11.892;2023-04-09T12:42:50;6.70;;;3.58;;
8179;SDS011;4131;48.810;11.892;2023-04-09T12:45:20;5.43;;;2.53;;
8179;SDS011;4131;48.810;11.892;2023-04-09T12:47:48;4.55;;;2.55;;
8179;SDS011;4131;48.810;11.892;2023-04-09T12:50:16;4.57;;;2.70;;
8179;SDS011;4131;48.810;11.892;2023-04-09T12:52:44;6.78;;;2.55;;
8179;SDS011;4131;48.810;11.892;2023-04-09T12:55:13;3.78;;;2.28;;
8179;SDS011;4131;48.810;11.892;2023-04-09T12:57:42;2.92;;;1.75;;
8179;SDS011;4131;48.810;11.892;2023-04-09T13:00:14;2.28;;;1.63;;
8179;SDS011;4131;48.810;11.892;2023-04-09T13:02:42;3.95;;;2.70;;
8179;SDS011;4131;48.810;11.892;2023-04-09T13:05:11;4.03;;;2.63;;
8179;SDS011;4131;48.810;11.892;2023-04-09T13:07:39;7.05;;;3.20;;
8179;SDS011;4131;48.810;11.892;2023-04-09T13:10:09;4.75;;;2.10;;
8179;SDS011;4131;48.810;11.892;2023-04-09T13:12:37;3.80;;;2.35;;
8179;SDS011;4131;48.810;11.892;2023-04-09T13:15:05;5.55;;;2.53;;
8179;SDS011;4131;48.810;11.892;2023-04-09T13:17:35;4.70;;;2.60;;
8179;SDS011;4131;48.810;11.892;2023-04-09T13:20:03;10.80;;;4.25;;
8179;SDS011;4131;48.810;11.892;2023-04-09T13:22:32;2.60;;;1.80;;
8179;SDS011;4131;48.810;11.892;2023-04-09T13:25:02;2.85;;;1.88;;
8179;SDS011;4131;48.810;11.892;2023-04-09T13:27:30;4.25;;;2.33;;
8179;SDS011;4131;48.810;11.892;2023-04-09T13:29:59;4.25;;;3.20;;
8179;SDS011;4131;48.810;11.892;2023-04-09T13:32:27;3.00;;;1.73;;
8179;SDS011;4131;48.810;11.892;2023-04-09T13:34:57;3.70;;;2.22;;
8179;SDS011;4131;48.810;11.892;2023-04-09T13:37:25;3.67;;;1.55;;
8179;SDS011;4131;48.810;11.892;2023-04-09T13:39:54;5.65;;;2.50;;
8179;SDS011;4131;48.810;11.892;2023-04-09T13:42:22;5.63;;;2.10;;
8179;SDS011;4131;48.810;11.892;2023-04-09T13:44:51;3.15;;;1.73;;
8179;SDS011;4131;48.810;11.892;2023-04-09T13:47:19;2.95;;;1.90;;
8179;SDS011;4131;48.810;11.892;2023-04-09T13:49:49;2.88;;;1.90;;
8179;SDS011;4131;48.810;11.892;2023-04-09T13:52:19;5.50;;;2.47;;
8179;SDS011;4131;48.810;11.892;2023-04-09T13:54:47;4.32;;;2.20;;
8179;SDS011;4131;48.810;11.892;2023-04-09T13:57:18;4.22;;;2.53;;
8179;SDS011;4131;48.810;11.892;2023-04-09T13:59:46;6.60;;;2.38;;
8179;SDS011;4131;48.810;11.892;2023-04-09T14:02:15;3.13;;;1.92;;
8179;SDS011;4131;48.810;11.892;2023-04-09T14:04:44;2.25;;;0.88;;
8179;SDS011;4131;48.810;11.892;2023-04-09T14:07:12;5.80;;;1.88;;
8179;SDS011;4131;48.810;11.892;2023-04-09T14:09:42;5.45;;;3.33;;
8179;SDS011;4131;48.810;11.892;2023-04-09T14:12:10;1.92;;;1.65;;
8179;SDS011;4131;48.810;11.892;2023-04-09T14:14:38;5.45;;;3.90;;
8179;SDS011;4131;48.810;11.892;2023-04-09T14:17:06;6.22;;;2.28;;
8179;SDS011;4131;48.810;11.892;2023-04-09T14:19:34;3.10;;;2.00;;
8179;SDS011;4131;48.810;11.892;2023-04-09T14:22:03;3.47;;;3.10;;
8179;SDS011;4131;48.810;11.892;2023-04-09T14:24:32;2.05;;;1.77;;
8179;SDS011;4131;48.810;11.892;2023-04-09T14:27:06;1.63;;;1.52;;
8179;SDS011;4131;48.810;11.892;2023-04-09T14:29:34;2.15;;;1.33;;
8179;SDS011;4131;48.810;11.892;2023-04-09T14:32:03;1.27;;;1.17;;
8179;SDS011;4131;48.810;11.892;2023-04-09T14:34:31;3.47;;;2.40;;
8179;SDS011;4131;48.810;11.892;2023-04-09T14:36:59;2.65;;;1.92;;
8179;SDS011;4131;48.810;11.892;2023-04-09T14:39:28;2.63;;;2.33;;
8179;SDS011;4131;48.810;11.892;2023-04-09T14:41:56;5.63;;;2.28;;
8179;SDS011;4131;48.810;11.892;2023-04-09T14:44:26;3.92;;;1.90;;
8179;SDS011;4131;48.810;11.892;2023-04-09T14:46:54;5.95;;;1.98;;
8179;SDS011;4131;48.810;11.892;2023-04-09T14:49:23;3.28;;;1.70;;
8179;SDS011;4131;48.810;11.892;2023-04-09T14:51:51;3.28;;;2.15;;
8179;SDS011;4131;48.810;11.892;2023-04-09T14:54:20;4.13;;;2.20;;
8179;SDS011;4131;48.810;11.892;2023-04-09T14:56:48;3.78;;;2.50;;
8179;SDS011;4131;48.810;11.892;2023-04-09T14:59:16;5.85;;;1.83;;
8179;SDS011;4131;48.810;11.892;2023-04-09T15:01:46;1.95;;;1.85;;
8179;SDS011;4131;48.810;11.892;2023-04-09T15:04:14;5.28;;;3.25;;
8179;SDS011;4131;48.810;11.892;2023-04-09T15:06:42;5.13;;;2.08;;
8179;SDS011;4131;48.810;11.892;2023-04-09T15:09:12;3.20;;;2.45;;
8179;SDS011;4131;48.810;11.892;2023-04-09T15:11:40;5.53;;;1.88;;
8179;SDS011;4131;48.810;11.892;2023-04-09T15:14:09;7.55;;;2.22;;
8179;SDS011;4131;48.810;11.892;2023-04-09T15:16:37;2.97;;;1.67;;
8179;SDS011;4131;48.810;11.892;2023-04-09T15:19:07;6.45;;;3.00;;
8179;SDS011;4131;48.810;11.892;2023-04-09T15:21:35;1.85;;;1.63;;